Saxaren — SKHW — position and weather

sailwx.info

Track history (hours):
 
Tides and Currents Weather Stations Pressure Air Temp Water Temp Dewpoint Dewpoint Depression Visibility Wind Speed Wind Dir Waves Ship Positions

Saxaren

Last reported at 2017-Nov-17 19:41 UTC. Time now 2017-Nov-18 04:41 UTC.
Position N 59°07' E 018°29'.

Length 37 m; draft 3 m.

Type: Passenger vessel. MMSI: 265512110.

Date/timePositionNaut miles runAvg speedWind from/ knotsBaromVisibWave heightAir tempDewpointWater temp
2017-Nov-17 19:41N 59°07' E 018°29'2 2.0
2017-Nov-17 18:29N 59°05' E 018°30'4 5.7
2017-Nov-17 17:44N 59°09' E 018°27'210.3
2017-Nov-17 17:30N 59°11' E 018°27'4 7.4
2017-Nov-17 17:01N 59°14' E 018°23'5 9.8
2017-Nov-17 16:30N 59°18' E 018°18'2 4.7
2017-Nov-17 16:00N 59°19' E 018°13'5 9.1
2017-Nov-17 15:31N 59°20' E 018°05'0 0.1
2017-Nov-17 15:00N 59°20' E 018°05'0 0.0
2017-Nov-17 14:30N 59°20' E 018°05'0 0.0
2017-Nov-17 14:00N 59°20' E 018°05'0 0.0
2017-Nov-17 13:30N 59°20' E 018°05'0 0.0
2017-Nov-17 13:00N 59°20' E 018°05'0 0.0
2017-Nov-17 12:30N 59°20' E 018°05'0 0.0
2017-Nov-17 12:00N 59°20' E 018°05'0 0.0
2017-Nov-17 11:30N 59°20' E 018°05'0 0.0
2017-Nov-17 11:00N 59°20' E 018°05'0 0.0
2017-Nov-17 10:30N 59°20' E 018°05'0 0.1
2017-Nov-17 10:01N 59°20' E 018°04'4 8.5
2017-Nov-17 09:31N 59°20' E 018°13'611.5
2017-Nov-17 09:01N 59°24' E 018°21'4 7.0
2017-Nov-17 08:30N 59°27' E 018°24'3 6.6
2017-Nov-17 08:00N 59°28' E 018°30'2 4.0
2017-Nov-17 07:30N 59°26' E 018°28'510.7
2017-Nov-17 06:59N 59°22' E 018°36'4 7.5
2017-Nov-17 06:26N 59°26' E 018°39'3 5.2
2017-Nov-17 05:50N 59°28' E 018°44'3 9.2
2017-Nov-17 05:31N 59°29' E 018°50'1 0.1
2017-Nov-16 17:48N 59°30' E 018°51'7 7.3
2017-Nov-16 16:48N 59°26' E 018°39'2 7.5
2017-Nov-16 16:28N 59°23' E 018°37'2 4.8
2017-Nov-16 16:00N 59°24' E 018°33'5 9.8
2017-Nov-16 15:30N 59°26' E 018°24'3 5.9
2017-Nov-16 15:01N 59°23' E 018°21'4 8.3
2017-Nov-16 14:31N 59°21' E 018°14'5 9.9
2017-Nov-16 14:01N 59°20' E 018°04'0 0.1
2017-Nov-16 13:30N 59°20' E 018°05'0 0.0
2017-Nov-16 13:01N 59°20' E 018°05'0 0.0
2017-Nov-16 12:30N 59°20' E 018°05'0 0.0
2017-Nov-16 12:00N 59°20' E 018°05'0 0.0
2017-Nov-16 11:31N 59°20' E 018°05'0 0.0
2017-Nov-16 11:01N 59°20' E 018°05'0 0.0
2017-Nov-16 10:30N 59°20' E 018°05'0 0.0
2017-Nov-16 10:00N 59°20' E 018°05'0 0.0
2017-Nov-16 09:30N 59°20' E 018°05'0 0.0
2017-Nov-16 09:00N 59°20' E 018°05'0 0.0
2017-Nov-16 08:31N 59°20' E 018°05'0 0.0
2017-Nov-16 08:01N 59°20' E 018°05'0 0.0
2017-Nov-16 07:30N 59°20' E 018°05'0 0.0
2017-Nov-16 07:00N 59°20' E 018°05'0 0.0
2017-Nov-16 06:30N 59°20' E 018°05'0 0.0
2017-Nov-16 06:01N 59°20' E 018°05'0 0.0
2017-Nov-16 05:31N 59°20' E 018°05'0 0.0
2017-Nov-16 05:01N 59°20' E 018°05'0 0.0
2017-Nov-16 04:31N 59°20' E 018°05'0 0.0
2017-Nov-16 04:00N 59°20' E 018°05'0 0.0
2017-Nov-16 03:31N 59°20' E 018°05'0 0.0
2017-Nov-16 03:00N 59°20' E 018°05'0 0.0
2017-Nov-16 02:31N 59°20' E 018°05'0 0.0
2017-Nov-16 02:01N 59°20' E 018°05'0 0.0
2017-Nov-16 01:31N 59°20' E 018°05'0 0.0
2017-Nov-16 01:01N 59°20' E 018°05'0 0.0
2017-Nov-16 00:31N 59°20' E 018°05'0 0.0
2017-Nov-16 00:00N 59°20' E 018°05'0 0.0
2017-Nov-15 23:31N 59°20' E 018°05'0 0.0
2017-Nov-15 23:01N 59°20' E 018°05'0 0.0
2017-Nov-15 22:30N 59°20' E 018°05'0 0.0
2017-Nov-15 22:00N 59°20' E 018°05'0 0.0
2017-Nov-15 21:30N 59°20' E 018°05'0 0.0
2017-Nov-15 21:00N 59°20' E 018°05'0 0.0
2017-Nov-15 20:30N 59°20' E 018°05'0 0.0
2017-Nov-15 20:00N 59°20' E 018°05'0 0.0
2017-Nov-15 19:30N 59°20' E 018°05'0 0.0
2017-Nov-15 19:00N 59°20' E 018°05'0 0.0
2017-Nov-15 18:31N 59°20' E 018°05'0 0.0
2017-Nov-15 18:00N 59°20' E 018°05'0 0.0
2017-Nov-15 17:31N 59°20' E 018°05'3 5.2
2017-Nov-15 17:00N 59°19' E 018°10'611.5
2017-Nov-15 16:30N 59°23' E 018°19'3 5.4
2017-Nov-15 16:00N 59°25' E 018°21'6 9.8
2017-Nov-15 15:27N 59°25' E 018°32'2 4.6
2017-Nov-15 14:57N 59°23' E 018°36'4 0.7
2017-Nov-15 09:54N 59°26' E 018°39'4 8.6
2017-Nov-15 09:29N 59°23' E 018°37'5 8.9
2017-Nov-15 08:55N 59°25' E 018°29'4 9.1
2017-Nov-15 08:30N 59°25' E 018°22'4 7.7
2017-Nov-15 08:01N 59°22' E 018°18'611.0
2017-Nov-15 07:30N 59°19' E 018°09'2 4.4
2017-Nov-15 07:00N 59°20' E 018°05'0 0.0
2017-Nov-14 19:05N 59°20' E 018°05'0 0.0
2017-Nov-14 19:01N 59°20' E 018°05'0 0.0
2017-Nov-14 18:31N 59°20' E 018°05'0 0.0
2017-Nov-14 18:00N 59°20' E 018°05'0 0.0
2017-Nov-14 17:31N 59°20' E 018°05'3 5.1
2017-Nov-14 17:00N 59°19' E 018°09'612.1
2017-Nov-14 16:30N 59°23' E 018°19'3 6.1
2017-Nov-14 16:00N 59°25' E 018°21'6 8.6
2017-Nov-14 15:22N 59°25' E 018°32'3 8.1
2017-Nov-14 14:58N 59°23' E 018°37'4 7.8
2017-Nov-14 14:28N 59°27' E 018°41'3 6.2
2017-Nov-14 13:59N 59°28' E 018°46'3 2.8
2017-Nov-14 12:50N 59°30' E 018°51'0 0.0
2017-Nov-14 12:22N 59°30' E 018°51'0 0.0
2017-Nov-14 11:57N 59°30' E 018°51'0 0.0
2017-Nov-14 11:28N 59°30' E 018°51'1 2.4
2017-Nov-14 11:00N 59°29' E 018°50'5 9.3
2017-Nov-14 10:29N 59°26' E 018°42'2 3.3
2017-Nov-14 09:59N 59°26' E 018°39'4 7.5
2017-Nov-14 09:28N 59°22' E 018°36'5 9.7
2017-Nov-14 09:00N 59°25' E 018°29'4 8.2
2017-Nov-14 08:30N 59°25' E 018°21'3 6.5
2017-Nov-14 08:00N 59°22' E 018°18'611.6
2017-Nov-14 07:30N 59°19' E 018°09'2 4.7
2017-Nov-14 07:00N 59°20' E 018°05'0 0.0
2017-Nov-14 06:31N 59°20' E 018°05'0 0.0
2017-Nov-14 06:01N 59°20' E 018°05'0 0.0
2017-Nov-14 05:31N 59°20' E 018°05'0 0.0
2017-Nov-14 05:00N 59°20' E 018°05'0 0.0
2017-Nov-14 04:30N 59°20' E 018°05'0 0.0
2017-Nov-14 04:00N 59°20' E 018°05'0 0.0
2017-Nov-14 03:30N 59°20' E 018°05'0 0.0
2017-Nov-14 03:01N 59°20' E 018°05'0 0.0
2017-Nov-14 02:30N 59°20' E 018°05'0 0.0
2017-Nov-14 02:00N 59°20' E 018°05'0 0.0
2017-Nov-14 01:30N 59°20' E 018°05'0 0.0
2017-Nov-14 01:00N 59°20' E 018°05'0 0.0
2017-Nov-14 00:30N 59°20' E 018°05'0 0.0
2017-Nov-14 00:00N 59°20' E 018°05'0 0.0
2017-Nov-13 23:31N 59°20' E 018°05'0 0.0
2017-Nov-13 23:01N 59°20' E 018°05'0 0.0
2017-Nov-13 22:30N 59°20' E 018°05'0 0.0
2017-Nov-13 22:01N 59°20' E 018°05'0 0.0
2017-Nov-13 02:01N 59°20' E 018°05'0 0.0
2017-Nov-13 01:31N 59°20' E 018°05'0 0.0
2017-Nov-13 01:01N 59°20' E 018°05'0 0.0
2017-Nov-13 00:31N 59°20' E 018°05'0 0.0
2017-Nov-13 00:00N 59°20' E 018°05'0 0.0
2017-Nov-12 23:30N 59°20' E 018°05'0 0.0
2017-Nov-12 23:00N 59°20' E 018°05'0 0.0
2017-Nov-12 22:30N 59°20' E 018°05'0 0.0
2017-Nov-12 22:00N 59°20' E 018°05'0 0.0
2017-Nov-12 21:31N 59°20' E 018°05'0 0.0
2017-Nov-12 21:01N 59°20' E 018°05'0 0.0
2017-Nov-12 20:30N 59°20' E 018°05'0 0.0
2017-Nov-12 20:00N 59°20' E 018°05'0 0.0
2017-Nov-12 19:30N 59°20' E 018°05'0 0.0
2017-Nov-12 19:00N 59°20' E 018°05'0 0.3
2017-Nov-12 18:30N 59°20' E 018°05'5 9.0
2017-Nov-12 18:01N 59°19' E 018°13'3 5.5
2017-Nov-12 17:30N 59°18' E 018°18'5 9.4
2017-Nov-12 17:00N 59°14' E 018°22'610.6
2017-Nov-12 16:29N 59°09' E 018°27'2 0.9
2017-Nov-12 14:23N 59°07' E 018°29'2 2.5
2017-Nov-12 13:29N 59°08' E 018°24'4 8.5
2017-Nov-12 13:01N 59°04' E 018°20'5 2.0
2017-Nov-12 10:36N 59°07' E 018°28'4 8.0
2017-Nov-12 10:06N 59°05' E 018°21'217.6
2017-Nov-12 10:00N 59°04' E 018°20'3 0.2
2017-Nov-11 16:12N 59°06' E 018°24'1 0.5
2017-Nov-11 13:26N 59°08' E 018°24'4 8.8
2017-Nov-11 13:00N 59°05' E 018°21'1 0.2
2017-Nov-11 08:59N 59°05' E 018°21'4 0.3
2017-Nov-10 18:07N 59°07' E 018°28'2 3.9
2017-Nov-10 17:41N 59°09' E 018°27'210.4
2017-Nov-10 17:30N 59°11' E 018°28'4 8.8
2017-Nov-10 17:00N 59°15' E 018°23'5 9.5
2017-Nov-10 16:30N 59°18' E 018°18'2 4.7
2017-Nov-10 16:00N 59°19' E 018°13'5 9.1
2017-Nov-10 15:31N 59°20' E 018°04'0 0.1
2017-Nov-10 15:01N 59°20' E 018°05'0 0.0
2017-Nov-10 14:31N 59°20' E 018°05'0 0.0
2017-Nov-10 14:01N 59°20' E 018°05'0 0.0
2017-Nov-10 13:30N 59°20' E 018°05'0 0.0
2017-Nov-10 13:00N 59°20' E 018°04'0 0.0
2017-Nov-10 12:30N 59°20' E 018°04'0 0.0
2017-Nov-10 12:01N 59°20' E 018°04'0 0.0
2017-Nov-10 11:30N 59°20' E 018°04'0 0.0
2017-Nov-10 11:00N 59°20' E 018°04'0 0.0
2017-Nov-10 10:30N 59°20' E 018°04'0 0.7
2017-Nov-10 10:00N 59°19' E 018°05'510.6
2017-Nov-10 09:31N 59°21' E 018°14'5 9.0
2017-Nov-10 09:01N 59°24' E 018°21'4 7.2
2017-Nov-10 08:30N 59°27' E 018°24'2 4.3
2017-Nov-10 07:57N 59°28' E 018°29'2 3.1
2017-Nov-10 07:26N 59°26' E 018°27'6 0.4
2017-Nov-09 16:27N 59°23' E 018°37'2 4.9
2017-Nov-09 16:00N 59°24' E 018°33'4 7.3
2017-Nov-09 15:29N 59°26' E 018°27'3 6.8
2017-Nov-09 15:01N 59°24' E 018°21'5 9.0
2017-Nov-09 14:30N 59°21' E 018°15'510.6
2017-Nov-09 14:01N 59°20' E 018°04'0 0.1
2017-Nov-09 13:30N 59°20' E 018°05'0 0.0
2017-Nov-09 13:00N 59°20' E 018°04'0 0.0
2017-Nov-09 12:30N 59°20' E 018°04'0 0.0
2017-Nov-09 12:00N 59°20' E 018°04'0 0.0
2017-Nov-09 11:30N 59°20' E 018°04'0 0.0
2017-Nov-09 11:00N 59°20' E 018°04'0 0.0
2017-Nov-09 10:30N 59°20' E 018°04'0 0.0
2017-Nov-09 10:00N 59°20' E 018°05'0 0.0
2017-Nov-09 09:30N 59°20' E 018°05'0 0.0
2017-Nov-09 09:00N 59°20' E 018°05'0 0.0
2017-Nov-09 08:30N 59°20' E 018°05'0 0.0
2017-Nov-09 08:00N 59°20' E 018°04'0 0.0
2017-Nov-09 07:30N 59°20' E 018°05'0 0.0
2017-Nov-09 07:00N 59°20' E 018°04'0 0.0
2017-Nov-09 06:30N 59°20' E 018°04'0 0.0
2017-Nov-09 06:00N 59°20' E 018°04'0 0.0
2017-Nov-09 05:30N 59°20' E 018°04'0 0.0
2017-Nov-09 05:00N 59°20' E 018°04'0 0.0
2017-Nov-09 04:30N 59°20' E 018°05'0 0.0
2017-Nov-09 04:00N 59°20' E 018°05'0 0.0
2017-Nov-09 03:30N 59°20' E 018°05'0 0.0
2017-Nov-09 03:00N 59°20' E 018°05'0 0.0
2017-Nov-09 02:30N 59°20' E 018°04'0 0.0
2017-Nov-09 02:00N 59°20' E 018°05'0 0.0
2017-Nov-09 01:30N 59°20' E 018°05'0 0.0
2017-Nov-09 01:00N 59°20' E 018°04'0 0.0
2017-Nov-09 00:30N 59°20' E 018°04'0 0.0
2017-Nov-09 00:00N 59°20' E 018°04'0 0.0
2017-Nov-08 23:30N 59°20' E 018°04'0 0.0
2017-Nov-08 23:00N 59°20' E 018°04'0 0.0
2017-Nov-08 22:30N 59°20' E 018°04'0 0.0
2017-Nov-08 22:00N 59°20' E 018°04'0 0.0
2017-Nov-08 21:30N 59°20' E 018°05'0 0.0
2017-Nov-08 21:00N 59°20' E 018°05'0 0.0
2017-Nov-08 20:30N 59°20' E 018°04'0 0.0
2017-Nov-08 20:00N 59°20' E 018°04'0 0.0
2017-Nov-08 19:30N 59°20' E 018°04'0 0.0
2017-Nov-08 19:00N 59°20' E 018°05'0 0.0
2017-Nov-08 18:30N 59°20' E 018°04'0 0.0
2017-Nov-08 18:00N 59°20' E 018°04'0 0.0
2017-Nov-08 17:30N 59°20' E 018°04'3 5.2
2017-Nov-08 17:00N 59°19' E 018°09'612.0
2017-Nov-08 16:30N 59°23' E 018°19'3 5.5
2017-Nov-08 16:00N 59°25' E 018°21'6 8.2
2017-Nov-08 15:16N 59°24' E 018°33'8 6.1
2017-Nov-08 13:55N 59°28' E 018°48'3 0.9
2017-Nov-08 11:04N 59°30' E 018°51'110.6
2017-Nov-08 11:00N 59°30' E 018°50'4 7.4
2017-Nov-08 10:27N 59°27' E 018°44'2 5.3
2017-Nov-08 09:59N 59°25' E 018°41'4 5.1
2017-Nov-08 09:17N 59°22' E 018°36'511.4
2017-Nov-08 08:51N 59°25' E 018°28'3 9.6
2017-Nov-08 08:30N 59°25' E 018°22'3 6.3
2017-Nov-08 08:00N 59°23' E 018°19'612.5
2017-Nov-08 07:31N 59°19' E 018°09'2 4.6
2017-Nov-08 07:01N 59°20' E 018°04'0 0.0
2017-Nov-08 06:30N 59°20' E 018°04'0 0.0
2017-Nov-08 06:01N 59°20' E 018°04'0 0.0
2017-Nov-08 05:30N 59°20' E 018°04'0 0.0
2017-Nov-08 05:00N 59°20' E 018°04'0 0.0
2017-Nov-08 04:31N 59°20' E 018°04'0 0.0
2017-Nov-08 04:01N 59°20' E 018°04'0 0.0
2017-Nov-08 03:30N 59°20' E 018°04'0 0.0
2017-Nov-08 03:01N 59°20' E 018°04'0 0.0
2017-Nov-08 02:30N 59°20' E 018°04'0 0.0
2017-Nov-08 02:01N 59°20' E 018°04'0 0.0
2017-Nov-08 01:31N 59°20' E 018°04'0 0.0
2017-Nov-08 01:01N 59°20' E 018°04'0 0.0
2017-Nov-08 00:31N 59°20' E 018°04'0 0.0
2017-Nov-08 00:01N 59°20' E 018°04'0 0.0
2017-Nov-07 23:30N 59°20' E 018°04'0 0.0
2017-Nov-07 23:00N 59°20' E 018°04'0 0.0
2017-Nov-07 22:31N 59°20' E 018°04'0 0.0
2017-Nov-07 22:01N 59°20' E 018°04'0 0.0
2017-Nov-07 21:31N 59°20' E 018°04'0 0.0
2017-Nov-07 21:00N 59°20' E 018°04'0 0.0
2017-Nov-07 20:30N 59°20' E 018°04'0 0.0
2017-Nov-07 20:01N 59°20' E 018°04'  
Track history (hours):
 
Tides and Currents Weather Stations Pressure Air Temp Water Temp Dewpoint Dewpoint Depression Visibility Wind Speed Wind Dir Waves Ship Positions

Saxaren

Last reported at 2017-Nov-17 19:41 UTC. Time now 2017-Nov-18 04:41 UTC.
Position N 59°07' E 018°29'.

Length 37 m; draft 3 m.

Type: Passenger vessel. MMSI: 265512110.

Date/timePositionNaut miles runAvg speedWind from/ knotsBaromVisibWave heightAir tempDewpointWater temp
2017-Nov-17 19:41N 59°07' E 018°29'2 2.0
2017-Nov-17 18:29N 59°05' E 018°30'4 5.7
2017-Nov-17 17:44N 59°09' E 018°27'210.3
2017-Nov-17 17:30N 59°11' E 018°27'4 7.4
2017-Nov-17 17:01N 59°14' E 018°23'5 9.8
2017-Nov-17 16:30N 59°18' E 018°18'2 4.7
2017-Nov-17 16:00N 59°19' E 018°13'5 9.1
2017-Nov-17 15:31N 59°20' E 018°05'0 0.1
2017-Nov-17 15:00N 59°20' E 018°05'0 0.0
2017-Nov-17 14:30N 59°20' E 018°05'0 0.0
2017-Nov-17 14:00N 59°20' E 018°05'0 0.0
2017-Nov-17 13:30N 59°20' E 018°05'0 0.0
2017-Nov-17 13:00N 59°20' E 018°05'0 0.0
2017-Nov-17 12:30N 59°20' E 018°05'0 0.0
2017-Nov-17 12:00N 59°20' E 018°05'0 0.0
2017-Nov-17 11:30N 59°20' E 018°05'0 0.0
2017-Nov-17 11:00N 59°20' E 018°05'0 0.0
2017-Nov-17 10:30N 59°20' E 018°05'0 0.1
2017-Nov-17 10:01N 59°20' E 018°04'4 8.5
2017-Nov-17 09:31N 59°20' E 018°13'611.5
2017-Nov-17 09:01N 59°24' E 018°21'4 7.0
2017-Nov-17 08:30N 59°27' E 018°24'3 6.6
2017-Nov-17 08:00N 59°28' E 018°30'2 4.0
2017-Nov-17 07:30N 59°26' E 018°28'510.7
2017-Nov-17 06:59N 59°22' E 018°36'4 7.5
2017-Nov-17 06:26N 59°26' E 018°39'3 5.2
2017-Nov-17 05:50N 59°28' E 018°44'3 9.2
2017-Nov-17 05:31N 59°29' E 018°50'1 0.1
2017-Nov-16 17:48N 59°30' E 018°51'7 7.3
2017-Nov-16 16:48N 59°26' E 018°39'2 7.5
2017-Nov-16 16:28N 59°23' E 018°37'2 4.8
2017-Nov-16 16:00N 59°24' E 018°33'5 9.8
2017-Nov-16 15:30N 59°26' E 018°24'3 5.9
2017-Nov-16 15:01N 59°23' E 018°21'4 8.3
2017-Nov-16 14:31N 59°21' E 018°14'5 9.9
2017-Nov-16 14:01N 59°20' E 018°04'0 0.1
2017-Nov-16 13:30N 59°20' E 018°05'0 0.0
2017-Nov-16 13:01N 59°20' E 018°05'0 0.0
2017-Nov-16 12:30N 59°20' E 018°05'0 0.0
2017-Nov-16 12:00N 59°20' E 018°05'0 0.0
2017-Nov-16 11:31N 59°20' E 018°05'0 0.0
2017-Nov-16 11:01N 59°20' E 018°05'0 0.0
2017-Nov-16 10:30N 59°20' E 018°05'0 0.0
2017-Nov-16 10:00N 59°20' E 018°05'0 0.0
2017-Nov-16 09:30N 59°20' E 018°05'0 0.0
2017-Nov-16 09:00N 59°20' E 018°05'0 0.0
2017-Nov-16 08:31N 59°20' E 018°05'0 0.0
2017-Nov-16 08:01N 59°20' E 018°05'0 0.0
2017-Nov-16 07:30N 59°20' E 018°05'0 0.0
2017-Nov-16 07:00N 59°20' E 018°05'0 0.0
2017-Nov-16 06:30N 59°20' E 018°05'0 0.0
2017-Nov-16 06:01N 59°20' E 018°05'0 0.0
2017-Nov-16 05:31N 59°20' E 018°05'0 0.0
2017-Nov-16 05:01N 59°20' E 018°05'0 0.0
2017-Nov-16 04:31N 59°20' E 018°05'0 0.0
2017-Nov-16 04:00N 59°20' E 018°05'0 0.0
2017-Nov-16 03:31N 59°20' E 018°05'0 0.0
2017-Nov-16 03:00N 59°20' E 018°05'0 0.0
2017-Nov-16 02:31N 59°20' E 018°05'0 0.0
2017-Nov-16 02:01N 59°20' E 018°05'0 0.0
2017-Nov-16 01:31N 59°20' E 018°05'0 0.0
2017-Nov-16 01:01N 59°20' E 018°05'0 0.0
2017-Nov-16 00:31N 59°20' E 018°05'0 0.0
2017-Nov-16 00:00N 59°20' E 018°05'0 0.0
2017-Nov-15 23:31N 59°20' E 018°05'0 0.0
2017-Nov-15 23:01N 59°20' E 018°05'0 0.0
2017-Nov-15 22:30N 59°20' E 018°05'0 0.0
2017-Nov-15 22:00N 59°20' E 018°05'0 0.0
2017-Nov-15 21:30N 59°20' E 018°05'0 0.0
2017-Nov-15 21:00N 59°20' E 018°05'0 0.0
2017-Nov-15 20:30N 59°20' E 018°05'0 0.0
2017-Nov-15 20:00N 59°20' E 018°05'0 0.0
2017-Nov-15 19:30N 59°20' E 018°05'0 0.0
2017-Nov-15 19:00N 59°20' E 018°05'0 0.0
2017-Nov-15 18:31N 59°20' E 018°05'0 0.0
2017-Nov-15 18:00N 59°20' E 018°05'0 0.0
2017-Nov-15 17:31N 59°20' E 018°05'3 5.2
2017-Nov-15 17:00N 59°19' E 018°10'611.5
2017-Nov-15 16:30N 59°23' E 018°19'3 5.4
2017-Nov-15 16:00N 59°25' E 018°21'6 9.8
2017-Nov-15 15:27N 59°25' E 018°32'2 4.6
2017-Nov-15 14:57N 59°23' E 018°36'4 0.7
2017-Nov-15 09:54N 59°26' E 018°39'4 8.6
2017-Nov-15 09:29N 59°23' E 018°37'5 8.9
2017-Nov-15 08:55N 59°25' E 018°29'4 9.1
2017-Nov-15 08:30N 59°25' E 018°22'4 7.7
2017-Nov-15 08:01N 59°22' E 018°18'611.0
2017-Nov-15 07:30N 59°19' E 018°09'2 4.4
2017-Nov-15 07:00N 59°20' E 018°05'0 0.0
2017-Nov-14 19:05N 59°20' E 018°05'0 0.0
2017-Nov-14 19:01N 59°20' E 018°05'0 0.0
2017-Nov-14 18:31N 59°20' E 018°05'0 0.0
2017-Nov-14 18:00N 59°20' E 018°05'0 0.0
2017-Nov-14 17:31N 59°20' E 018°05'3 5.1
2017-Nov-14 17:00N 59°19' E 018°09'612.1
2017-Nov-14 16:30N 59°23' E 018°19'3 6.1
2017-Nov-14 16:00N 59°25' E 018°21'6 8.6
2017-Nov-14 15:22N 59°25' E 018°32'3 8.1
2017-Nov-14 14:58N 59°23' E 018°37'4 7.8
2017-Nov-14 14:28N 59°27' E 018°41'3 6.2
2017-Nov-14 13:59N 59°28' E 018°46'3 2.8
2017-Nov-14 12:50N 59°30' E 018°51'0 0.0
2017-Nov-14 12:22N 59°30' E 018°51'0 0.0
2017-Nov-14 11:57N 59°30' E 018°51'0 0.0
2017-Nov-14 11:28N 59°30' E 018°51'1 2.4
2017-Nov-14 11:00N 59°29' E 018°50'5 9.3
2017-Nov-14 10:29N 59°26' E 018°42'2 3.3
2017-Nov-14 09:59N 59°26' E 018°39'4 7.5
2017-Nov-14 09:28N 59°22' E 018°36'5 9.7
2017-Nov-14 09:00N 59°25' E 018°29'4 8.2
2017-Nov-14 08:30N 59°25' E 018°21'3 6.5
2017-Nov-14 08:00N 59°22' E 018°18'611.6
2017-Nov-14 07:30N 59°19' E 018°09'2 4.7
2017-Nov-14 07:00N 59°20' E 018°05'0 0.0
2017-Nov-14 06:31N 59°20' E 018°05'0 0.0
2017-Nov-14 06:01N 59°20' E 018°05'0 0.0
2017-Nov-14 05:31N 59°20' E 018°05'0 0.0
2017-Nov-14 05:00N 59°20' E 018°05'0 0.0
2017-Nov-14 04:30N 59°20' E 018°05'0 0.0
2017-Nov-14 04:00N 59°20' E 018°05'0 0.0
2017-Nov-14 03:30N 59°20' E 018°05'0 0.0
2017-Nov-14 03:01N 59°20' E 018°05'0 0.0
2017-Nov-14 02:30N 59°20' E 018°05'0 0.0
2017-Nov-14 02:00N 59°20' E 018°05'0 0.0
2017-Nov-14 01:30N 59°20' E 018°05'0 0.0
2017-Nov-14 01:00N 59°20' E 018°05'0 0.0
2017-Nov-14 00:30N 59°20' E 018°05'0 0.0
2017-Nov-14 00:00N 59°20' E 018°05'0 0.0
2017-Nov-13 23:31N 59°20' E 018°05'0 0.0
2017-Nov-13 23:01N 59°20' E 018°05'0 0.0
2017-Nov-13 22:30N 59°20' E 018°05'0 0.0
2017-Nov-13 22:01N 59°20' E 018°05'0 0.0
2017-Nov-13 02:01N 59°20' E 018°05'0 0.0
2017-Nov-13 01:31N 59°20' E 018°05'0 0.0
2017-Nov-13 01:01N 59°20' E 018°05'0 0.0
2017-Nov-13 00:31N 59°20' E 018°05'0 0.0
2017-Nov-13 00:00N 59°20' E 018°05'0 0.0
2017-Nov-12 23:30N 59°20' E 018°05'0 0.0
2017-Nov-12 23:00N 59°20' E 018°05'0 0.0
2017-Nov-12 22:30N 59°20' E 018°05'0 0.0
2017-Nov-12 22:00N 59°20' E 018°05'0 0.0
2017-Nov-12 21:31N 59°20' E 018°05'0 0.0
2017-Nov-12 21:01N 59°20' E 018°05'0 0.0
2017-Nov-12 20:30N 59°20' E 018°05'0 0.0
2017-Nov-12 20:00N 59°20' E 018°05'0 0.0
2017-Nov-12 19:30N 59°20' E 018°05'0 0.0
2017-Nov-12 19:00N 59°20' E 018°05'0 0.3
2017-Nov-12 18:30N 59°20' E 018°05'5 9.0
2017-Nov-12 18:01N 59°19' E 018°13'3 5.5
2017-Nov-12 17:30N 59°18' E 018°18'5 9.4
2017-Nov-12 17:00N 59°14' E 018°22'610.6
2017-Nov-12 16:29N 59°09' E 018°27'2 0.9
2017-Nov-12 14:23N 59°07' E 018°29'2 2.5
2017-Nov-12 13:29N 59°08' E 018°24'4 8.5
2017-Nov-12 13:01N 59°04' E 018°20'5 2.0
2017-Nov-12 10:36N 59°07' E 018°28'4 8.0
2017-Nov-12 10:06N 59°05' E 018°21'217.6
2017-Nov-12 10:00N 59°04' E 018°20'3 0.2
2017-Nov-11 16:12N 59°06' E 018°24'1 0.5
2017-Nov-11 13:26N 59°08' E 018°24'4 8.8
2017-Nov-11 13:00N 59°05' E 018°21'1 0.2
2017-Nov-11 08:59N 59°05' E 018°21'4 0.3
2017-Nov-10 18:07N 59°07' E 018°28'2 3.9
2017-Nov-10 17:41N 59°09' E 018°27'210.4
2017-Nov-10 17:30N 59°11' E 018°28'4 8.8
2017-Nov-10 17:00N 59°15' E 018°23'5 9.5
2017-Nov-10 16:30N 59°18' E 018°18'2 4.7
2017-Nov-10 16:00N 59°19' E 018°13'5 9.1
2017-Nov-10 15:31N 59°20' E 018°04'0 0.1
2017-Nov-10 15:01N 59°20' E 018°05'0 0.0
2017-Nov-10 14:31N 59°20' E 018°05'0 0.0
2017-Nov-10 14:01N 59°20' E 018°05'0 0.0
2017-Nov-10 13:30N 59°20' E 018°05'0 0.0
2017-Nov-10 13:00N 59°20' E 018°04'0 0.0
2017-Nov-10 12:30N 59°20' E 018°04'0 0.0
2017-Nov-10 12:01N 59°20' E 018°04'0 0.0
2017-Nov-10 11:30N 59°20' E 018°04'0 0.0
2017-Nov-10 11:00N 59°20' E 018°04'0 0.0
2017-Nov-10 10:30N 59°20' E 018°04'0 0.7
2017-Nov-10 10:00N 59°19' E 018°05'510.6
2017-Nov-10 09:31N 59°21' E 018°14'5 9.0
2017-Nov-10 09:01N 59°24' E 018°21'4 7.2
2017-Nov-10 08:30N 59°27' E 018°24'2 4.3
2017-Nov-10 07:57N 59°28' E 018°29'2 3.1
2017-Nov-10 07:26N 59°26' E 018°27'6 0.4
2017-Nov-09 16:27N 59°23' E 018°37'2 4.9
2017-Nov-09 16:00N 59°24' E 018°33'4 7.3
2017-Nov-09 15:29N 59°26' E 018°27'3 6.8
2017-Nov-09 15:01N 59°24' E 018°21'5 9.0
2017-Nov-09 14:30N 59°21' E 018°15'510.6
2017-Nov-09 14:01N 59°20' E 018°04'0 0.1
2017-Nov-09 13:30N 59°20' E 018°05'0 0.0
2017-Nov-09 13:00N 59°20' E 018°04'0 0.0
2017-Nov-09 12:30N 59°20' E 018°04'0 0.0
2017-Nov-09 12:00N 59°20' E 018°04'0 0.0
2017-Nov-09 11:30N 59°20' E 018°04'0 0.0
2017-Nov-09 11:00N 59°20' E 018°04'0 0.0
2017-Nov-09 10:30N 59°20' E 018°04'0 0.0
2017-Nov-09 10:00N 59°20' E 018°05'0 0.0
2017-Nov-09 09:30N 59°20' E 018°05'0 0.0
2017-Nov-09 09:00N 59°20' E 018°05'0 0.0
2017-Nov-09 08:30N 59°20' E 018°05'0 0.0
2017-Nov-09 08:00N 59°20' E 018°04'0 0.0
2017-Nov-09 07:30N 59°20' E 018°05'0 0.0
2017-Nov-09 07:00N 59°20' E 018°04'0 0.0
2017-Nov-09 06:30N 59°20' E 018°04'0 0.0
2017-Nov-09 06:00N 59°20' E 018°04'0 0.0
2017-Nov-09 05:30N 59°20' E 018°04'0 0.0
2017-Nov-09 05:00N 59°20' E 018°04'0 0.0
2017-Nov-09 04:30N 59°20' E 018°05'0 0.0
2017-Nov-09 04:00N 59°20' E 018°05'0 0.0
2017-Nov-09 03:30N 59°20' E 018°05'0 0.0
2017-Nov-09 03:00N 59°20' E 018°05'0 0.0
2017-Nov-09 02:30N 59°20' E 018°04'0 0.0
2017-Nov-09 02:00N 59°20' E 018°05'0 0.0
2017-Nov-09 01:30N 59°20' E 018°05'0 0.0
2017-Nov-09 01:00N 59°20' E 018°04'0 0.0
2017-Nov-09 00:30N 59°20' E 018°04'0 0.0
2017-Nov-09 00:00N 59°20' E 018°04'0 0.0
2017-Nov-08 23:30N 59°20' E 018°04'0 0.0
2017-Nov-08 23:00N 59°20' E 018°04'0 0.0
2017-Nov-08 22:30N 59°20' E 018°04'0 0.0
2017-Nov-08 22:00N 59°20' E 018°04'0 0.0
2017-Nov-08 21:30N 59°20' E 018°05'0 0.0
2017-Nov-08 21:00N 59°20' E 018°05'0 0.0
2017-Nov-08 20:30N 59°20' E 018°04'0 0.0
2017-Nov-08 20:00N 59°20' E 018°04'0 0.0
2017-Nov-08 19:30N 59°20' E 018°04'0 0.0
2017-Nov-08 19:00N 59°20' E 018°05'0 0.0
2017-Nov-08 18:30N 59°20' E 018°04'0 0.0
2017-Nov-08 18:00N 59°20' E 018°04'0 0.0
2017-Nov-08 17:30N 59°20' E 018°04'3 5.2
2017-Nov-08 17:00N 59°19' E 018°09'612.0
2017-Nov-08 16:30N 59°23' E 018°19'3 5.5
2017-Nov-08 16:00N 59°25' E 018°21'6 8.2
2017-Nov-08 15:16N 59°24' E 018°33'8 6.1
2017-Nov-08 13:55N 59°28' E 018°48'3 0.9
2017-Nov-08 11:04N 59°30' E 018°51'110.6
2017-Nov-08 11:00N 59°30' E 018°50'4 7.4
2017-Nov-08 10:27N 59°27' E 018°44'2 5.3
2017-Nov-08 09:59N 59°25' E 018°41'4 5.1
2017-Nov-08 09:17N 59°22' E 018°36'511.4
2017-Nov-08 08:51N 59°25' E 018°28'3 9.6
2017-Nov-08 08:30N 59°25' E 018°22'3 6.3
2017-Nov-08 08:00N 59°23' E 018°19'612.5
2017-Nov-08 07:31N 59°19' E 018°09'2 4.6
2017-Nov-08 07:01N 59°20' E 018°04'0 0.0
2017-Nov-08 06:30N 59°20' E 018°04'0 0.0
2017-Nov-08 06:01N 59°20' E 018°04'0 0.0
2017-Nov-08 05:30N 59°20' E 018°04'0 0.0
2017-Nov-08 05:00N 59°20' E 018°04'0 0.0
2017-Nov-08 04:31N 59°20' E 018°04'0 0.0
2017-Nov-08 04:01N 59°20' E 018°04'0 0.0
2017-Nov-08 03:30N 59°20' E 018°04'0 0.0
2017-Nov-08 03:01N 59°20' E 018°04'0 0.0
2017-Nov-08 02:30N 59°20' E 018°04'0 0.0
2017-Nov-08 02:01N 59°20' E 018°04'0 0.0
2017-Nov-08 01:31N 59°20' E 018°04'0 0.0
2017-Nov-08 01:01N 59°20' E 018°04'0 0.0
2017-Nov-08 00:31N 59°20' E 018°04'0 0.0
2017-Nov-08 00:01N 59°20' E 018°04'0 0.0
2017-Nov-07 23:30N 59°20' E 018°04'0 0.0
2017-Nov-07 23:00N 59°20' E 018°04'0 0.0
2017-Nov-07 22:31N 59°20' E 018°04'0 0.0
2017-Nov-07 22:01N 59°20' E 018°04'0 0.0
2017-Nov-07 21:31N 59°20' E 018°04'0 0.0
2017-Nov-07 21:00N 59°20' E 018°04'0 0.0
2017-Nov-07 20:30N 59°20' E 018°04'0 0.0
2017-Nov-07 20:01N 59°20' E 018°04'  

Dump ship's entire track history